Data for 09/08/2014

Time Sea-Level Adjusted Pressure Absolute Pressure Temperature Relative Humidity Dew Point   
(mb) (inHg) (mb) (inHg) (C) (F) (%) (C) (F)
00:05 1016 30 845 24.95 14.1 57.4 29 -3.6 25.6
00:10 1016 30 845 24.95 14 57.2 29 -3.5 25.6
00:15 1016 30 845 24.95 13.8 56.8 30 -3.3 26
00:20 1016 30 845 24.95 13.7 56.6 29 -3.8 25.2
00:25 1016 30 845 24.95 13.8 56.8 30 -3.6 25.6
00:30 1016 30 845 24.95 13.7 56.7 30 -3.5 25.7
00:35 1016 30 845 24.95 13.6 56.4 30 -3.4 25.8
00:40 1016 30 845 24.95 13.6 56.5 30 -3.6 25.5
00:45 1016 30 845 24.95 13.7 56.6 30 -3.6 25.5
00:50 1016 30 845 24.95 13.9 57.1 28 -4.2 24.5
00:55 1016 30 845 24.95 14.1 57.4 28 -4 24.8
01:00 1016 30 845 24.95 14.3 57.7 27 -4.4 24.1
01:05 1016 30 845 24.95 14.7 58.4 26 -4.6 23.7
01:10 1016 30 845 24.95 15 59 26 -4.4 24.1
01:15 1016 30 845 24.95 15 59 25 -4.6 23.7
01:20 1016 30 845 24.95 15.1 59.2 25 -4.5 23.8
01:25 1016 30 845 24.95 15.1 59.2 26 -4.3 24.3
01:30 1015 29.97 845 24.95 14.8 58.7 26 -4.5 23.9
01:35 1015 29.97 845 24.95 14.7 58.5 27 -3.9 25
01:40 1015 29.97 845 24.95 14.5 58.2 27 -4 24.8
01:45 1015 29.97 845 24.95 14.2 57.6 28 -3.9 24.9
01:50 1015 29.97 845 24.95 13.9 57.1 30 -3.2 26.2
01:55 1015 29.97 845 24.95 13.8 56.9 29 -3.8 25.2
02:00 1015 29.97 845 24.95 13.5 56.3 31 -3.4 25.8
02:05 1015 29.97 844 24.92 13.2 55.7 32 -3.3 26.1
02:10 1015 29.97 844 24.92 12.9 55.2 33 -3 26.6
02:15 1015 29.97 844 24.92 12.9 55.3 31 -3.9 25
02:20 1015 29.97 844 24.92 13.1 55.6 32 -3.2 26.2
02:25 1015 29.97 844 24.92 13.4 56.1 30 -3.9 24.9
02:30 1015 29.97 844 24.92 13.5 56.4 29 -3.9 25
02:35 1015 29.97 844 24.92 13.3 56 31 -3.4 25.8
02:40 1015 29.97 844 24.92 13.2 55.8 30 -4.1 24.7
02:45 1015 29.97 844 24.92 13.4 56.1 30 -3.6 25.5
02:50 1015 29.97 844 24.92 13.2 55.8 31 -3.4 26
02:55 1015 29.97 844 24.92 13 55.5 30 -4.1 24.6
03:00 1015 29.97 844 24.92 13.4 56 30 -3.7 25.3
03:05 1015 29.97 844 24.92 13.3 56 30 -3.7 25.4
03:10 1015 29.97 844 24.92 13.3 55.9 32 -3.2 26.3
03:15 1015 29.97 844 24.92 13.1 55.5 31 -3.6 25.6
03:20 1015 29.97 844 24.92 12.9 55.3 31 -3.6 25.4
03:25 1015 29.97 844 24.92 12.9 55.2 32 -3.3 26
03:30 1015 29.97 844 24.92 13 55.3 32 -3.4 25.9
03:35 1015 29.97 844 24.92 12.9 55.2 32 -3.3 26.1
03:40 1015 29.97 844 24.92 12.9 55.1 35 -2.3 27.8
03:45 1015 29.97 844 24.92 12 53.6 37 -2.1 28.3
03:50 1015 29.97 844 24.92 11.4 52.5 40 -1.6 29.2
03:55 1015 29.97 844 24.92 10.8 51.4 42 -1.4 29.5
04:00 1015 29.97 844 24.92 10.4 50.7 44 -1.2 29.8
04:05 1015 29.97 844 24.92 10.2 50.4 44 -1.6 29.2
04:10 1015 29.97 844 24.92 10.4 50.8 43 -1.7 28.9
04:15 1015 29.97 844 24.92 10.6 51.1 43 -1.5 29.3
04:20 1015 29.97 844 24.92 10.5 51 42 -1.7 29
04:25 1015 29.97 844 24.92 11 51.8 38 -2.6 27.3
04:30 1015 29.97 844 24.92 11.4 52.5 38 -2.4 27.6
04:35 1015 29.97 844 24.92 11.7 53.1 37 -2.5 27.5
04:40 1015 29.97 844 24.92 11.8 53.2 37 -2.5 27.5
04:45 1015 29.97 844 24.92 11.8 53.2 39 -1.8 28.7
04:50 1015 29.97 844 24.92 11.6 52.8 39 -1.7 28.9
04:55 1015 29.97 844 24.92 11.2 52.1 40 -2 28.4
05:00 1015 29.97 844 24.92 11.4 52.4 37 -2.7 27.2
05:05 1015 29.97 844 24.92 11.5 52.8 38 -2.2 28
05:10 1015 29.97 844 24.92 11.5 52.6 38 -2.5 27.5
05:15 1015 29.97 844 24.92 11.6 52.9 37 -2.5 27.5
05:20 1015 29.97 844 24.92 11.7 53.1 36 -2.8 26.9
05:25 1015 29.97 844 24.92 11.9 53.4 36 -2.7 27.1
05:30 1015 29.97 844 24.92 11.9 53.4 38 -1.8 28.7
05:35 1015 29.97 844 24.92 11.6 52.9 39 -1.8 28.7
05:40 1015 29.97 845 24.95 11.5 52.6 39 -2.1 28.3
05:45 1015 29.97 845 24.95 11.3 52.3 40 -1.8 28.8
05:50 1015 29.97 845 24.95 11.2 52.1 40 -1.8 28.8
05:55 1015 29.97 845 24.95 11 51.7 42 -1.3 29.6
06:00 1015 29.97 845 24.95 10.7 51.3 42 -1.7 28.9
06:05 1015 29.97 845 24.95 10.6 51.1 43 -1.3 29.7
06:10 1015 29.97 845 24.95 10.2 50.4 45 -1.1 30
06:15 1015 29.97 845 24.95 10.1 50.1 46 -1 30.2
06:20 1015 29.97 845 24.95 10.1 50.2 46 -1 30.2
06:25 1015 29.97 845 24.95 10.1 50.3 48 -0.4 31.2
06:30 1015 29.97 845 24.95 10.4 50.8 45 -0.8 30.5
06:35 1015 29.97 845 24.95 10.1 50.2 49 0.1 32.1
06:40 1015 29.97 845 24.95 9.6 49.3 52 0.3 32.5
06:45 1015 29.97 845 24.95 9.6 49.2 51 -0.1 31.7
06:50 1015 29.97 845 24.95 9.9 49.7 50 0 32
06:55 1015 29.97 845 24.95 10.2 50.4 47 -0.7 30.8
07:00 1015 29.97 845 24.95 10.4 50.8 47 -0.2 31.6
07:05 1015 29.97 845 24.95 10.9 51.6 44 -0.9 30.4
07:10 1015 29.97 845 24.95 11.5 52.6 42 -1 30.2
07:15 1015 29.97 845 24.95 11.8 53.3 41 -0.9 30.4
07:20 1015 29.97 845 24.95 12.3 54.1 40 -0.8 30.6
07:25 1015 29.97 844 24.92 12.6 54.7 41 -0.2 31.6
07:30 1015 29.97 844 24.92 12.8 55.1 38 -0.9 30.3
07:35 1015 29.97 844 24.92 13.3 56 36 -1.5 29.4
07:40 1015 29.97 844 24.92 13.8 56.9 36 -0.9 30.4
07:45 1015 29.97 844 24.92 14.4 58 34 -1.2 29.8
07:50 1015 29.97 844 24.92 14.9 58.9 34 -0.8 30.6
07:55 1015 29.97 844 24.92 15.3 59.6 33 -0.6 31
08:00 1015 29.97 844 24.92 15.9 60.7 32 -0.6 31
08:05 1015 29.97 844 24.92 16.5 61.7 31 -0.7 30.7
08:10 1015 29.97 844 24.92 16.9 62.4 32 -0 32
08:15 1015 29.97 844 24.92 17.2 63 31 -0.1 31.9
08:20 1015 29.97 844 24.92 17.4 63.2 34 1.5 34.6
08:25 1015 29.97 844 24.92 17.6 63.7 33 1.4 34.5
08:30 1015 29.97 844 24.92 17.7 63.8 33 1.5 34.7
08:35 1015 29.97 844 24.92 17.8 64.1 32 0.9 33.6
08:40 1015 29.97 844 24.92 17.8 64.1 33 1.2 34.2
08:45 1015 29.97 844 24.92 18.3 65 30 0.6 33.1
08:50 1015 29.97 844 24.92 18.6 65.5 29 0.4 32.7
08:55 1015 29.97 844 24.92 19.1 66.5 30 1.3 34.3
09:00 1015 29.97 844 24.92 19.3 66.8 28 0.5 32.8
09:05 1015 29.97 844 24.92 20.3 68.5 26 0.3 32.5
09:10 1015 29.97 844 24.92 21 69.8 24 -0.1 31.8
09:15 1015 29.97 844 24.92 21.2 70.2 26 1.3 34.3
09:20 1015 29.97 844 24.92 21.5 70.7 25 0.9 33.7
09:25 1015 29.97 844 24.92 21.2 70.2 26 1.2 34.2
09:30 1015 29.97 844 24.92 21.1 70 26 1.3 34.3
09:35 1015 29.97 844 24.92 21.6 70.9 27 1.8 35.2
09:40 1015 29.97 844 24.92 22.5 72.4 24 0.8 33.5
09:45 1015 29.97 844 24.92 22.8 73 23 0.5 32.9
09:50 1015 29.97 844 24.92 23.3 73.9 22 0.5 32.9
09:55 1015 29.97 844 24.92 22.9 73.2 23 1 33.7
10:00 1015 29.97 844 24.92 22.9 73.3 22 0.2 32.4
10:05 1015 29.97 844 24.92 22.7 72.9 22 -0.2 31.7
10:10 1015 29.97 844 24.92 22.2 72 23 -0 32
10:15 1015 29.97 844 24.92 22.6 72.6 19 -1.7 28.9
10:20 1015 29.97 844 24.92 22.2 71.9 21 -1.1 30
10:25 1015 29.97 844 24.92 23.1 73.7 19 -1.4 29.6
10:30 1015 29.97 844 24.92 22.9 73.2 20 -1.3 29.6
10:35 1015 29.97 844 24.92 23.3 74 20 -1 30.2
10:40 1015 29.97 844 24.92 23.7 74.6 20 -0.6 30.9
10:45 1015 29.97 844 24.92 23.5 74.2 20 -0.8 30.5
10:50 1015 29.97 844 24.92 23.4 74.2 20 -0.8 30.5
10:55 1015 29.97 844 24.92 23.9 75 20 -0.3 31.5
11:00 1015 29.97 844 24.92 23.8 74.8 20 -0.5 31.1
11:05 1014 29.94 844 24.92 25 77 19 -0 32
11:10 1014 29.94 844 24.92 25.5 77.9 18 -0.3 31.4
11:15 1014 29.94 844 24.92 25.6 78 19 0.3 32.5
11:20 1014 29.94 844 24.92 25.5 77.9 18 -0.2 31.6
11:25 1014 29.94 843 24.89 25.5 78 17 -0.8 30.5
11:30 1014 29.94 843 24.89 25.9 78.6 19 0.7 33.3
11:35 1014 29.94 843 24.89 26.3 79.3 15 -1.8 28.8
11:40 1014 29.94 843 24.89 26.1 78.9 16 -1.9 28.6
11:45 1014 29.94 843 24.89 26.2 79.2 14 -3.4 25.9
11:50 1014 29.94 843 24.89 26.5 79.7 14 -2.4 27.7
11:55 1014 29.94 843 24.89 26.8 80.3 11 -6.1 21
12:00 1014 29.94 843 24.89 26.4 79.5 11 -6.4 20.6
12:05 1014 29.94 843 24.89 26.6 79.8 10 -6.8 19.8
12:10 1014 29.94 843 24.89 26.3 79.4 11 -5.7 21.7
12:15 1014 29.94 843 24.89 26.4 79.4 11 -6.4 20.4
12:20 1014 29.94 843 24.89 26.6 79.8 11 -5.6 21.8
12:25 1014 29.94 843 24.89 26.5 79.7 11 -5.6 22
12:30 1014 29.94 843 24.89 26.7 80.1 12 -5.3 22.4
12:35 1014 29.94 843 24.89 26.8 80.2 14 -2.8 26.9
12:40 1014 29.94 843 24.89 26.6 80 14 -2.8 27
12:45 1014 29.94 843 24.89 26.8 80.2 14 -2.6 27.4
12:50 1014 29.94 843 24.89 26.7 80 14 -2.5 27.5
12:55 1014 29.94 843 24.89 27 80.6 14 -2 28.3
13:00 1014 29.94 843 24.89 27.2 81 15 -1.7 29
13:05 1014 29.94 843 24.89 27.3 81.1 14 -2 28.4
13:10 1014 29.94 843 24.89 27.1 80.8 13 -3 26.6
13:15 1013 29.91 843 24.89 27.2 81 14 -2.4 27.7
13:20 1013 29.91 843 24.89 27.2 80.9 15 -1.4 29.4
13:25 1013 29.91 843 24.89 27.2 80.9 14 -2 28.5
13:30 1013 29.91 842 24.86 27.3 81.1 14 -2.1 28.2
13:35 1013 29.91 842 24.86 27 80.6 15 -1.8 28.8
13:40 1013 29.91 842 24.86 26.9 80.3 14 -2.4 27.6
13:45 1013 29.91 842 24.86 26.4 79.4 14 -2.9 26.8
13:50 1013 29.91 842 24.86 26.6 79.9 14 -2.8 26.9
13:55 1013 29.91 842 24.86 27.3 81.1 13 -3.2 26.3
14:00 1013 29.91 842 24.86 27.3 81.1 13 -3 26.6
14:05 1013 29.91 842 24.86 27.8 82 13 -2.7 27.1
14:10 1013 29.91 842 24.86 28 82.5 13 -3.2 26.3
14:15 1013 29.91 842 24.86 28 82.3 14 -1.8 28.7
14:20 1013 29.91 842 24.86 27.7 81.8 14 -2 28.4
14:25 1013 29.91 842 24.86 27.4 81.3 14 -2.4 27.7
14:30 1013 29.91 842 24.86 27 80.7 14 -2.4 27.7
14:35 1013 29.91 842 24.86 27.2 81 13 -3.4 25.9
14:40 1013 29.91 842 24.86 27.8 82 11 -5.3 22.4
14:45 1012 29.88 842 24.86 27.8 82 12 -4.3 24.3
14:50 1012 29.88 842 24.86 27.8 82 11 -5 22.9
14:55 1012 29.88 842 24.86 28 82.4 10 -5.6 21.8
15:00 1012 29.88 841 24.83 28.3 83 10 -5.5 22.1
15:05 1012 29.88 841 24.83 28.3 82.9 12 -3.8 25.1
15:10 1012 29.88 842 24.86 28.3 82.9 12 -3.6 25.5
15:15 1012 29.88 841 24.83 28.1 82.5 12 -3.9 25
15:20 1012 29.88 841 24.83 27.5 81.5 12 -4 24.7
15:25 1012 29.88 841 24.83 27.7 81.9 12 -4.2 24.4
15:30 1012 29.88 841 24.83 28.2 82.7 12 -3.6 25.5
15:35 1012 29.88 841 24.83 27.5 81.6 12 -4.7 23.6
15:40 1012 29.88 841 24.83 27.8 82 12 -4.3 24.3
15:45 1012 29.88 841 24.83 27.8 82.1 11 -5.5 22
15:50 1012 29.88 841 24.83 27.4 81.3 11 -5.7 21.7
15:55 1012 29.88 841 24.83 27.8 82.1 10 -5.7 21.7
16:00 1012 29.88 841 24.83 27.9 82.2 11 -5.2 22.6
16:05 1012 29.88 841 24.83 27.7 81.9 11 -5.5 22.1
16:10 1012 29.88 841 24.83 27.6 81.7 10 -6.4 20.4
16:15 1012 29.88 841 24.83 27.5 81.5 11 -5.7 21.7
16:20 1012 29.88 841 24.83 27.6 81.7 12 -4.4 24.1
16:25 1012 29.88 841 24.83 27.5 81.6 11 -5.4 22.3
16:30 1012 29.88 841 24.83 27.3 81.2 11 -5.6 21.9
16:35 1012 29.88 841 24.83 27.1 80.7 12 -4.2 24.4
16:40 1012 29.88 841 24.83 26.6 79.9 11 -5.6 21.9
16:45 1012 29.88 841 24.83 26.8 80.2 12 -5.2 22.6
16:50 1012 29.88 841 24.83 26.7 80 12 -4.9 23.2
16:55 1012 29.88 841 24.83 26.5 79.7 11 -5.5 22
17:00 1012 29.88 841 24.83 26.1 79 12 -5.7 21.7
17:05 1012 29.88 841 24.83 25.7 78.2 13 -4.8 23.4
17:10 1012 29.88 841 24.83 25.4 77.7 13 -5.3 22.5
17:15 1012 29.88 841 24.83 25.2 77.4 13 -5.3 22.5
17:20 1012 29.88 841 24.83 25.1 77.2 13 -4.8 23.3
17:25 1012 29.88 841 24.83 25 76.9 14 -4.4 24.1
17:30 1012 29.88 841 24.83 24.9 76.8 15 -3.7 25.4
17:35 1012 29.88 841 24.83 24.8 76.6 14 -4.6 23.7
17:40 1012 29.88 841 24.83 24.8 76.6 14 -3.9 25
17:45 1012 29.88 841 24.83 24.7 76.4 15 -3.7 25.4
17:50 1012 29.88 841 24.83 24.6 76.2 15 -3.8 25.2
17:55 1012 29.88 841 24.83 24.4 75.9 15 -3.3 26.1
18:00 1012 29.88 841 24.83 24.2 75.6 16 -3.3 26
18:05 1012 29.88 841 24.83 24 75.3 16 -3.5 25.6
18:10 1012 29.88 841 24.83 23.6 74.5 20 -0.5 31.1
18:15 1012 29.88 841 24.83 22.6 72.7 22 -0.2 31.7
18:20 1012 29.88 841 24.83 22.2 72 22 -0.5 31.1
18:25 1012 29.88 841 24.83 22.2 71.9 19 -2 28.3
18:30 1012 29.88 841 24.83 22.4 72.3 22 0.1 32.1
18:35 1012 29.88 841 24.83 22.1 71.8 22 -0.4 31.4
18:40 1012 29.88 841 24.83 21.6 70.9 22 -0.9 30.3
18:45 1012 29.88 841 24.83 21.4 70.5 22 -1.1 30.1
18:50 1012 29.88 841 24.83 21.5 70.7 20 -2.3 27.9
18:55 1012 29.88 841 24.83 22 71.6 16 -4.8 23.3
19:00 1012 29.88 841 24.83 22.3 72.2 18 -2.8 26.9
19:05 1012 29.88 841 24.83 22.2 71.9 19 -2.4 27.6
19:10 1012 29.88 842 24.86 22.1 71.8 18 -2.8 27
19:15 1012 29.88 842 24.86 22.1 71.7 19 -2.7 27.2
19:20 1012 29.88 842 24.86 21.9 71.4 20 -2 28.3
19:25 1013 29.91 842 24.86 21.6 70.8 21 -1.6 29.2
19:30 1013 29.91 842 24.86 21.1 70 25 0.6 33.1
19:35 1012 29.88 842 24.86 21 69.8 26 1.1 33.9
19:40 1012 29.88 842 24.86 20.6 69.2 23 -0.9 30.3
19:45 1012 29.88 842 24.86 20.3 68.5 24 -0.6 30.8
19:50 1012 29.88 842 24.86 20.1 68.3 24 -1.1 30
19:55 1012 29.88 842 24.86 20.1 68.1 25 -0.4 31.3
20:00 1012 29.88 842 24.86 20.1 68.3 25 -0.3 31.5
20:05 1013 29.91 842 24.86 19.9 67.7 26 -0.1 31.7
20:10 1013 29.91 842 24.86 20.1 68.3 23 -1.3 29.7
20:15 1013 29.91 842 24.86 19.9 67.7 26 -0.2 31.7
20:20 1013 29.91 842 24.86 19.1 66.5 28 0.3 32.5
20:25 1013 29.91 842 24.86 18.8 65.9 27 -0.7 30.8
20:30 1013 29.91 842 24.86 18.9 66.1 24 -1.9 28.5
20:35 1013 29.91 842 24.86 19.8 67.6 19 -4.4 24
20:40 1013 29.91 842 24.86 21.5 70.8 19 -3 26.6
20:45 1013 29.91 842 24.86 21.2 70.1 23 -0.4 31.2
20:50 1013 29.91 842 24.86 19.6 67.2 23 -1.8 28.7
20:55 1013 29.91 842 24.86 19.7 67.4 21 -3 26.6
21:00 1013 29.91 843 24.89 20 68.1 20 -3.2 26.3
21:05 1013 29.91 843 24.89 20.4 68.7 20 -3.2 26.2
21:10 1014 29.94 843 24.89 20.6 69 21 -2.6 27.3
21:15 1014 29.94 843 24.89 20.6 69.1 21 -2.2 28.1
21:20 1013 29.91 843 24.89 20.7 69.2 19 -3.3 26
21:25 1013 29.91 843 24.89 20.6 69.2 19 -3.9 25
21:30 1013 29.91 843 24.89 20.3 68.5 21 -2.6 27.3
21:35 1013 29.91 843 24.89 19.9 67.7 23 -1.8 28.7
21:40 1013 29.91 843 24.89 19.5 67.1 23 -1.7 28.9
21:45 1014 29.94 843 24.89 19.3 66.7 24 -1.4 29.5
21:50 1014 29.94 843 24.89 19.4 66.9 23 -2.1 28.3
21:55 1014 29.94 843 24.89 19.8 67.6 18 -4.7 23.5
22:00 1014 29.94 843 24.89 20 68 22 -2.4 27.6
22:05 1014 29.94 843 24.89 19.4 66.9 23 -2.2 28.1
22:10 1014 29.94 843 24.89 18.9 66 24 -2 28.4
22:15 1014 29.94 843 24.89 18.5 65.3 25 -1.7 28.9
22:20 1014 29.94 843 24.89 18.5 65.3 24 -2.3 27.8
22:25 1014 29.94 843 24.89 18.4 65.1 27 -0.9 30.3
22:30 1014 29.94 843 24.89 18 64.4 27 -1.2 29.8
22:35 1014 29.94 843 24.89 18 64.4 25 -2.4 27.7
22:40 1014 29.94 843 24.89 17.9 64.3 24 -2.5 27.4
22:45 1014 29.94 843 24.89 17.8 64 26 -1.7 28.9
22:50 1014 29.94 843 24.89 17.5 63.5 25 -2.7 27.2
22:55 1014 29.94 843 24.89 17.3 63.1 26 -2.4 27.6
23:00 1014 29.94 843 24.89 16.9 62.4 29 -1.2 29.8
23:05 1014 29.94 843 24.89 16.5 61.7 33 0.1 32.2
23:10 1014 29.94 843 24.89 16.3 61.4 34 0.5 32.9
23:15 1014 29.94 843 24.89 16.2 61.2 34 0.6 33.1
23:20 1014 29.94 843 24.89 16.2 61.2 34 0.6 33
23:25 1014 29.94 844 24.92 16.3 61.3 34 0.5 32.8
23:30 1015 29.97 844 24.92 16 60.8 38 1.7 35
23:35 1015 29.97 844 24.92 15.7 60.2 35 0.5 32.9
23:40 1015 29.97 844 24.92 15.3 59.5 35 -0 31.9
23:45 1015 29.97 844 24.92 15.2 59.3 32 -1.2 29.9
23:50 1015 29.97 844 24.92 15.6 60 33 -0.6 30.9
23:55 1015 29.97 844 24.92 15.3 59.5 35 -0.1 31.9
24:00 1015 29.97 844 24.92 15 59.1 35 -0.1 31.8